Airfield :
LOGIN :

Register | Disclaimer

   EN    FR    IT 

 










Legend :    VFR   Marginal VFR   IFR   Intensive IFR   Very Intensive IFR
Visi :
Ceiling :
>= 8 km
>= 3000ft
5 to 8 km
1000 to 3000 ft
1500m to 5 km
500 to 1000 ft
800 to 1500m
200 to 500 ft
< 800m
< 200 ft
Symbols :   Thunderstorms  Fog  Heavy snow  Heavy precipitations  Wind > 20 kt
SIGMETs :     Misc.  Thunderstorms  Icing  Turbulence  Mountain Waves  Volcanic Ashes







- Airport Elevation : 876 ft
- IATA code : MBX


LJMB - Maribor

CURRENT METAR :
  • 251400Z 22013G23KT 190V250 9999 SCT047 19/08 Q1010

EXPIRED METARs :
  • 251330Z 22014G27KT 180V250 9999 SCT047 19/08 Q1010
  • 251300Z 22017KT 190V250 9999 SCT047 19/08 Q1010
  • 251230Z 22017G27KT 9999 SCT047 19/08 Q1010
  • 251200Z 20018KT 9999 SCT047 18/08 Q1010
  • 251130Z 23018KT 190V250 9999 FEW040 19/07 Q1011

TAF TAF LJMB
Valid from the 25 at 15:00 until the 26 at 15:00 UTC


251400Z 2515/2615 20015KT 9999 SCT045
TEMPO 2515/2524 20020G35KT
BECMG 2520/2522 20010KT
BECMG 2607/2609 20015KT
TEMPO 2609/2615 -RA BKN040
No reported NOTAMs for that airfield.



MET'MAP, your aeronautical weather chart ! - Copyright ORBIFLY December 2007 - Disclaimer

ORBIFLY MET'MAP TEAM :

Programming & Development : Alexandra Zaïnal
Concept & Development : Baudouin d'Aumeries
Co-Development & Prog : Marc-Olivier Méhu
Technical & hardware support : Manuel Goepfert

Contact : metmap@orbifly.com




SOURCES & CREDITS :

   NOAA